Flight Track Log - Related Links

Times and Time Zones

All times are in EDT time to prevent confusion due to time zone crossing. See the SKW4664 flight status page for this flight to view local times or setup timezone preferences in your user account.

Time Position Orientation Groundspeed Altitude Reporting Facility
EDT Latitude Longitude Course Direction KTS MPH feet Rate Location/Type
Fri 10:38:45 AM 44.8208 -93.2322 230° Southwest 194 223 3,600  Level Minneapolis Center
Fri 10:39:47 AM 44.7672 -93.2814 213° Southwest 238 274 5,800 1,645 Climbing Minneapolis Center
Fri 10:40:49 AM 44.7233 -93.3547 230° Southwest 256 295 7,000 581 Climbing Minneapolis Center
Fri 10:41:00 AM 44.6601 -93.6799 235° Southwest  Level FlightAware Approximate
Fri 10:41:51 AM 44.6972 -93.4483 249° West 258 297 7,000  Level Minneapolis Center
Fri 10:42:00 AM 44.6013 -93.7974 235° Southwest  Level FlightAware Approximate
Fri 10:42:53 AM 44.6653 -93.5603 248° West 258 297 10,100  Level Minneapolis Center
Fri 10:43:00 AM 44.5342 -93.9041 230° Southwest  Level FlightAware Approximate
Fri 10:43:55 AM 44.6372 -93.6569 248° West 268 308 12,500  Level Minneapolis Center
Fri 10:44:56 AM 44.6050 -93.7686 248° West 312 359 13,900 1,707 Climbing Minneapolis Center
Fri 10:45:58 AM 44.5631 -93.8831 243° Southwest 328 377 16,000 1,645 Climbing Minneapolis Center
Fri 10:47:00 AM 44.5044 -93.9933 233° Southwest 355 409 17,300 1,306 Climbing Minneapolis Center
Fri 10:48:02 AM 44.4458 -94.1058 234° Southwest 358 412 18,700 1,500 Climbing Minneapolis Center
Fri 10:49:04 AM 44.3719 -94.2467 234° Southwest 372 428 20,400 1,306 Climbing Minneapolis Center
Fri 10:50:06 AM 44.3086 -94.3672 234° Southwest 384 442 21,400 968 Climbing Minneapolis Center
Fri 10:51:08 AM 44.2606 -94.5006 243° Southwest 388 447 22,400 968 Climbing Minneapolis Center
Fri 10:52:10 AM 44.2222 -94.6547 251° West 393 452 23,400 774 Climbing Minneapolis Center
Fri 10:53:12 AM 44.1844 -94.7994 250° West 397 457 24,000 290 Climbing Minneapolis Center
Fri 10:54:14 AM 44.1464 -94.9425 250° West 396 456 24,000  Level Minneapolis Center
Fri 10:55:16 AM 44.1111 -95.0800 250° West 383 441 24,000  Level Minneapolis Center
Fri 10:56:18 AM 44.0742 -95.2189 250° West 382 440 24,000 -1,235 Level Minneapolis Center
Fri 10:57:32 AM 44.0300 -95.3878 250° West 387 445 21,200 -2,540 Descending Minneapolis Center
Fri 10:58:35 AM 43.9878 -95.5467 250° West 367 422 18,200 -2,565 Descending Minneapolis Center
Fri 10:59:36 AM 43.9542 -95.6711 249° West 349 402 15,900 -2,146 Descending Minneapolis Center
Fri 11:00:38 AM 43.9217 -95.7964 250° West 346 398 13,800 -1,984 Descending Minneapolis Center
Fri 11:01:40 AM 43.8889 -95.9147 249° West 332 382 11,800 -1,790 Descending Minneapolis Center
Fri 11:02:42 AM 43.8608 -96.0164 249° West 293 337 10,100 -1,548 Descending Minneapolis Center
Fri 11:03:44 AM 43.8286 -96.1067 244° Southwest 275 316 8,600 -1,452 Descending Minneapolis Center
Fri 11:04:46 AM 43.7872 -96.2131 242° Southwest 265 305 7,100 -1,210 Descending Minneapolis Center
Fri 11:05:48 AM 43.7511 -96.3028 241° Southwest 265 305 6,100 -1,016 Descending Minneapolis Center
Fri 11:06:50 AM 43.7147 -96.3919 241° Southwest 265 305 5,000 -774 Descending Minneapolis Center
Fri 11:07:52 AM 43.6767 -96.4775 238° Southwest 264 304 4,500 -629 Descending Minneapolis Center
Fri 11:08:54 AM 43.6214 -96.5228 211° Southwest 242 278 3,700 -581 Descending Minneapolis Center
Fri 11:09:56 AM 43.5778 -96.5831 225° Southwest 230 265 3,300 -387 Descending Minneapolis Center

Login

Don't have an account? Register now (free) for customized features, flight alerts, and more!